createdAt,value
2023-03-29T00:01:00.954Z,10.29
2023-03-29T00:03:30.914Z,10.23
2023-03-29T00:06:05.785Z,10.18
2023-03-29T00:08:35.387Z,10.19
2023-03-29T00:11:03.674Z,10.19
2023-03-29T00:13:32.239Z,10.18
2023-03-29T00:16:00.668Z,10.19
2023-03-29T00:18:28.982Z,10.18
2023-03-29T00:20:57.570Z,10.17
2023-03-29T00:23:28.279Z,10.16
2023-03-29T00:25:56.962Z,10.15
2023-03-29T00:28:25.568Z,10.15
2023-03-29T00:30:53.808Z,10.14
2023-03-29T00:33:23.996Z,10.14
2023-03-29T00:35:56.051Z,10.13
2023-03-29T00:38:24.242Z,10.13
2023-03-29T00:40:54.024Z,10.10
2023-03-29T00:43:23.160Z,10.08
2023-03-29T00:45:51.419Z,10.10
2023-03-29T00:48:23.874Z,10.10
2023-03-29T00:50:55.523Z,10.12
2023-03-29T00:53:29.015Z,10.15
2023-03-29T00:56:04.714Z,10.14
2023-03-29T00:58:39.387Z,10.12
2023-03-29T01:01:10.994Z,10.12
2023-03-29T01:03:47.377Z,10.11
2023-03-29T01:06:19.421Z,10.11
2023-03-29T01:08:52.302Z,10.10
2023-03-29T01:11:26.790Z,10.11
2023-03-29T01:14:00.348Z,10.13
2023-03-29T01:16:30.507Z,10.15
2023-03-29T01:18:59.508Z,10.15
2023-03-29T01:21:32.455Z,10.15
2023-03-29T01:24:32.395Z,10.11
2023-03-29T01:27:10.054Z,10.05
2023-03-29T01:29:43.257Z,10.01
2023-03-29T01:32:15.838Z,9.98
2023-03-29T01:34:49.838Z,9.93
2023-03-29T01:37:24.926Z,9.87
2023-03-29T01:39:54.127Z,9.80
2023-03-29T01:42:37.644Z,9.71
2023-03-29T01:45:15.252Z,9.67
2023-03-29T01:47:48.895Z,9.64
2023-03-29T01:50:21.185Z,9.63
2023-03-29T01:52:56.516Z,9.60
2023-03-29T01:55:28.675Z,9.58
2023-03-29T01:57:59.727Z,9.53
2023-03-29T02:00:30.731Z,9.50
2023-03-29T02:03:04.704Z,9.47
2023-03-29T02:05:33.539Z,9.42
2023-03-29T02:08:07.294Z,9.38
2023-03-29T02:10:38.028Z,9.32
2023-03-29T02:13:07.258Z,9.23
2023-03-29T02:15:39.943Z,9.18
2023-03-29T02:18:08.446Z,9.15
2023-03-29T02:20:40.819Z,9.09
2023-03-29T02:23:18.249Z,9.05
2023-03-29T02:25:47.506Z,9.04
2023-03-29T02:28:15.981Z,9.05
2023-03-29T02:30:53.628Z,9.04
2023-03-29T02:33:26.454Z,9.04
2023-03-29T02:35:58.902Z,9.04
2023-03-29T02:38:28.641Z,9.06
2023-03-29T02:40:59.394Z,9.07
2023-03-29T02:43:30.375Z,9.10
2023-03-29T02:46:00.541Z,9.12
2023-03-29T02:48:29.548Z,9.19
2023-03-29T02:51:02.805Z,9.23
2023-03-29T02:53:38.125Z,9.27
2023-03-29T02:56:07.487Z,9.31
2023-03-29T02:58:36.785Z,9.35
2023-03-29T03:01:07.830Z,9.41
2023-03-29T03:03:36.103Z,9.47
2023-03-29T03:06:04.998Z,9.49
2023-03-29T03:08:33.356Z,9.51
2023-03-29T03:11:02.224Z,9.51
2023-03-29T03:13:30.973Z,9.51
2023-03-29T03:15:59.078Z,9.51
2023-03-29T03:18:28.936Z,9.53
2023-03-29T03:20:57.989Z,9.55
2023-03-29T03:23:27.695Z,9.57
2023-03-29T03:25:56.748Z,9.59
2023-03-29T03:28:25.475Z,9.59
2023-03-29T03:30:54.288Z,9.63
2023-03-29T03:33:22.736Z,9.64
2023-03-29T03:35:52.816Z,9.63
2023-03-29T03:38:21.093Z,9.63
2023-03-29T03:40:55.966Z,9.62
2023-03-29T03:43:24.560Z,9.60
2023-03-29T03:45:53.078Z,9.57
2023-03-29T03:48:21.632Z,9.55
2023-03-29T03:50:52.879Z,9.54
2023-03-29T03:53:21.697Z,9.54
2023-03-29T03:55:50.444Z,9.58
2023-03-29T03:58:18.939Z,9.64
2023-03-29T04:00:50.389Z,9.72
2023-03-29T04:03:19.367Z,9.77
2023-03-29T04:05:48.875Z,9.79
2023-03-29T04:08:18.505Z,9.84
2023-03-29T04:10:53.530Z,9.86
2023-03-29T04:13:21.910Z,9.85
2023-03-29T04:15:54.355Z,9.79
2023-03-29T04:18:23.060Z,9.75
2023-03-29T04:20:51.770Z,9.75
2023-03-29T04:23:22.133Z,9.77
2023-03-29T04:25:50.316Z,9.78
2023-03-29T04:28:18.389Z,9.80
2023-03-29T04:30:47.350Z,9.84
2023-03-29T04:33:15.483Z,9.86
2023-03-29T04:35:46.343Z,9.89
2023-03-29T04:38:14.566Z,9.88
2023-03-29T04:40:44.476Z,9.86
2023-03-29T04:43:12.760Z,9.84
2023-03-29T04:45:40.933Z,9.80
2023-03-29T04:48:09.179Z,9.74
2023-03-29T04:50:37.788Z,9.68
2023-03-29T04:53:06.096Z,9.65
2023-03-29T04:55:34.155Z,9.58
2023-03-29T04:58:04.980Z,9.54
2023-03-29T05:00:33.506Z,9.52
2023-03-29T05:03:01.648Z,9.53
2023-03-29T05:05:29.893Z,9.54
2023-03-29T05:07:59.092Z,9.58
2023-03-29T05:10:27.295Z,9.57
2023-03-29T05:12:56.302Z,9.56
2023-03-29T05:15:25.934Z,9.56
2023-03-29T05:17:54.491Z,9.52
2023-03-29T05:20:22.902Z,9.50
2023-03-29T05:22:51.052Z,9.50
2023-03-29T05:25:19.745Z,9.49
2023-03-29T05:27:48.148Z,9.48
2023-03-29T05:30:16.938Z,9.47
2023-03-29T05:32:47.067Z,9.45
2023-03-29T05:35:15.496Z,9.44
2023-03-29T05:37:43.659Z,9.43
2023-03-29T05:40:13.503Z,9.42
2023-03-29T05:42:41.932Z,9.42
2023-03-29T05:45:11.741Z,9.41
2023-03-29T05:47:39.925Z,9.42
2023-03-29T05:50:11.302Z,9.43
2023-03-29T05:52:41.141Z,9.42
2023-03-29T05:55:10.478Z,9.42
2023-03-29T05:57:38.922Z,9.40
2023-03-29T06:00:19.725Z,9.40
2023-03-29T06:02:47.938Z,9.40
2023-03-29T06:05:18.352Z,9.39
2023-03-29T06:07:48.891Z,9.42
2023-03-29T06:10:18.107Z,9.39
2023-03-29T06:12:47.012Z,9.40
2023-03-29T06:15:16.313Z,9.43
2023-03-29T06:17:46.589Z,9.45
2023-03-29T06:20:15.584Z,9.50
2023-03-29T06:22:46.813Z,9.52
2023-03-29T06:25:17.757Z,9.52
2023-03-29T06:27:46.801Z,9.56
2023-03-29T06:30:15.799Z,9.59
2023-03-29T06:32:44.363Z,9.63
2023-03-29T06:35:13.114Z,9.67
2023-03-29T06:37:49.866Z,9.69
2023-03-29T06:40:21.397Z,9.72
2023-03-29T06:42:51.059Z,9.73
2023-03-29T06:45:21.208Z,9.77
2023-03-29T06:47:50.933Z,9.80
2023-03-29T06:50:19.772Z,9.82
2023-03-29T06:52:48.691Z,9.83
2023-03-29T06:55:17.925Z,9.81
2023-03-29T06:57:48.084Z,9.81
2023-03-29T07:00:19.213Z,9.83
2023-03-29T07:02:47.975Z,9.82
2023-03-29T07:05:16.774Z,9.81
2023-03-29T07:07:57.093Z,9.81
2023-03-29T07:10:32.484Z,9.78
2023-03-29T07:13:02.718Z,9.74
2023-03-29T07:15:31.073Z,9.76
2023-03-29T07:17:59.413Z,9.79
2023-03-29T07:20:28.401Z,9.83
2023-03-29T07:22:57.989Z,9.84
2023-03-29T07:25:27.633Z,9.81
2023-03-29T07:27:55.938Z,9.78
2023-03-29T07:30:31.632Z,9.74
2023-03-29T07:33:01.024Z,9.70
2023-03-29T07:35:30.869Z,9.66
2023-03-29T07:37:59.263Z,9.58
2023-03-29T07:40:30.620Z,9.51
2023-03-29T07:42:59.857Z,9.53
2023-03-29T07:45:29.986Z,9.59
2023-03-29T07:47:58.886Z,9.67
2023-03-29T07:50:27.650Z,9.74
2023-03-29T07:52:57.031Z,9.78
2023-03-29T07:55:25.362Z,9.84
2023-03-29T07:57:53.756Z,9.87
2023-03-29T08:00:25.412Z,9.95
2023-03-29T08:02:55.952Z,9.98
2023-03-29T08:05:37.974Z,10.05
2023-03-29T08:08:10.793Z,10.09
2023-03-29T08:10:39.878Z,10.10
2023-03-29T08:13:09.430Z,10.11
2023-03-29T08:15:39.620Z,10.13
2023-03-29T08:18:09.332Z,10.18
2023-03-29T08:20:37.756Z,10.24
2023-03-29T08:23:06.675Z,10.23
2023-03-29T08:25:38.365Z,10.21
2023-03-29T08:28:06.472Z,10.19
2023-03-29T08:30:34.668Z,10.23
2023-03-29T08:33:02.815Z,10.34
2023-03-29T08:35:32.362Z,10.38
2023-03-29T08:38:00.832Z,10.41
2023-03-29T08:40:31.266Z,10.44
2023-03-29T08:43:19.902Z,10.47
2023-03-29T08:46:00.135Z,10.55
2023-03-29T08:48:32.521Z,10.73
2023-03-29T08:51:09.934Z,10.75
2023-03-29T08:53:45.164Z,10.72
2023-03-29T08:56:16.384Z,10.68
2023-03-29T08:58:46.760Z,10.64
2023-03-29T09:01:15.197Z,10.57
2023-03-29T09:03:48.650Z,10.52
2023-03-29T09:06:23.248Z,10.45
2023-03-29T09:08:53.445Z,10.40
2023-03-29T09:11:36.971Z,10.42
2023-03-29T09:14:25.185Z,10.42
2023-03-29T09:17:02.604Z,10.46
2023-03-29T09:19:40.085Z,10.47
2023-03-29T09:22:17.380Z,10.43
2023-03-29T09:24:58.991Z,10.47
2023-03-29T09:27:31.454Z,10.50
2023-03-29T09:30:13.770Z,10.43
2023-03-29T09:32:53.277Z,10.44
2023-03-29T09:35:24.688Z,10.52
2023-03-29T09:37:55.620Z,10.62
2023-03-29T09:40:28.590Z,10.75
2023-03-29T09:42:58.608Z,10.67
2023-03-29T09:45:26.759Z,10.57
2023-03-29T09:47:58.728Z,10.53
2023-03-29T09:50:34.218Z,10.51
2023-03-29T09:53:05.121Z,10.50
2023-03-29T09:55:36.648Z,10.49
2023-03-29T09:58:14.493Z,10.48
2023-03-29T10:00:43.338Z,10.43
2023-03-29T10:03:11.511Z,10.44
2023-03-29T10:05:40.196Z,10.45
2023-03-29T10:08:20.434Z,10.37
2023-03-29T10:10:51.259Z,10.44
2023-03-29T10:13:24.488Z,10.45
2023-03-29T10:16:25.308Z,10.49
2023-03-29T10:19:10.638Z,10.54
2023-03-29T10:21:45.655Z,10.58
2023-03-29T10:24:23.658Z,10.59
2023-03-29T10:26:56.201Z,10.60
2023-03-29T10:29:37.708Z,10.67
2023-03-29T10:32:29.852Z,10.63
2023-03-29T10:35:09.700Z,10.72
2023-03-29T10:37:45.172Z,10.75
2023-03-29T10:40:35.140Z,10.78
2023-03-29T10:43:14.772Z,10.73
2023-03-29T10:45:43.931Z,10.79
2023-03-29T10:48:16.154Z,10.88
2023-03-29T10:50:53.544Z,10.90
2023-03-29T10:53:28.029Z,10.94
2023-03-29T10:56:10.444Z,10.95
2023-03-29T10:58:58.198Z,10.89
2023-03-29T11:01:34.916Z,10.73
2023-03-29T11:04:16.140Z,10.72
2023-03-29T11:06:50.405Z,10.77
2023-03-29T11:09:29.780Z,10.81
2023-03-29T11:12:16.233Z,10.86
2023-03-29T11:15:00.632Z,11.00
2023-03-29T11:17:43.316Z,11.23
2023-03-29T11:20:25.585Z,11.35
2023-03-29T11:23:01.565Z,11.37
2023-03-29T11:25:42.240Z,11.35
2023-03-29T11:28:28.782Z,11.51
2023-03-29T11:31:07.031Z,11.72
2023-03-29T11:33:53.794Z,12.01
2023-03-29T11:36:33.274Z,12.51
2023-03-29T11:39:09.714Z,13.13
2023-03-29T11:41:41.944Z,13.25
2023-03-29T11:44:19.003Z,13.45
2023-03-29T11:46:51.874Z,13.65
2023-03-29T11:49:24.628Z,13.46
2023-03-29T11:51:58.111Z,13.46
2023-03-29T11:54:31.885Z,13.64
2023-03-29T11:57:06.077Z,13.78
2023-03-29T11:59:41.813Z,14.22
2023-03-29T12:02:17.917Z,14.62
2023-03-29T12:04:57.601Z,14.87
2023-03-29T12:07:31.400Z,15.00
2023-03-29T12:10:04.256Z,15.15
2023-03-29T12:12:43.962Z,15.29
2023-03-29T12:15:20.540Z,15.57
2023-03-29T12:17:59.481Z,15.70
2023-03-29T12:20:31.828Z,15.76
2023-03-29T12:23:00.818Z,16.16
2023-03-29T12:25:35.890Z,16.45
2023-03-29T12:28:19.448Z,16.25
2023-03-29T12:30:57.353Z,16.32
2023-03-29T12:33:47.408Z,16.53
2023-03-29T12:36:31.227Z,16.33
2023-03-29T12:38:59.826Z,16.38
2023-03-29T12:41:29.730Z,16.27
2023-03-29T12:44:10.238Z,16.29
2023-03-29T12:46:42.683Z,16.18
2023-03-29T12:49:20.487Z,15.96
2023-03-29T12:51:49.918Z,15.86
2023-03-29T12:54:24.976Z,15.94
2023-03-29T12:57:00.547Z,15.85
2023-03-29T12:59:38.588Z,15.94
2023-03-29T13:05:21.199Z,16.55
2023-03-29T13:07:49.809Z,16.56
2023-03-29T13:10:45.295Z,16.56
2023-03-29T13:13:18.875Z,16.71
2023-03-29T13:15:47.483Z,16.79
2023-03-29T13:18:32.365Z,16.86
2023-03-29T13:21:09.480Z,16.87
2023-03-29T13:23:50.190Z,16.92
2023-03-29T13:26:32.332Z,17.02
2023-03-29T13:29:18.440Z,17.40
2023-03-29T13:31:52.897Z,17.68
2023-03-29T13:34:32.318Z,17.79
2023-03-29T13:37:11.108Z,17.82
2023-03-29T13:39:50.214Z,18.00
2023-03-29T13:42:21.854Z,18.06
2023-03-29T13:44:50.502Z,18.05
2023-03-29T13:47:48.982Z,18.36
2023-03-29T13:50:37.021Z,18.37
2023-03-29T13:53:13.890Z,17.90
2023-03-29T13:55:48.834Z,17.97
2023-03-29T13:58:31.713Z,18.05
2023-03-29T14:01:11.231Z,17.99
2023-03-29T14:03:44.916Z,17.84
2023-03-29T14:06:16.935Z,17.70
2023-03-29T14:08:51.313Z,17.63
2023-03-29T14:11:26.738Z,17.69
2023-03-29T14:13:58.796Z,17.86
2023-03-29T14:16:29.554Z,18.16
2023-03-29T14:19:00.459Z,18.50
2023-03-29T14:21:28.569Z,18.70
2023-03-29T14:24:01.684Z,18.61
2023-03-29T14:26:32.610Z,18.33
2023-03-29T14:29:02.595Z,18.05
2023-03-29T14:31:34.397Z,17.82
2023-03-29T14:34:05.778Z,17.73
2023-03-29T14:36:35.218Z,17.83
2023-03-29T14:39:09.630Z,18.06
2023-03-29T14:41:39.435Z,18.10
2023-03-29T14:44:09.203Z,18.07
2023-03-29T14:46:38.182Z,18.11
2023-03-29T14:49:07.506Z,18.14
2023-03-29T14:51:37.068Z,18.18
2023-03-29T14:54:07.749Z,18.14
2023-03-29T14:56:36.224Z,18.05
2023-03-29T14:59:05.939Z,17.95
2023-03-29T15:01:34.130Z,17.96
2023-03-29T15:04:06.309Z,18.05
2023-03-29T15:06:39.980Z,18.18
2023-03-29T15:09:14.246Z,18.11
2023-03-29T15:11:42.420Z,17.89
2023-03-29T15:14:17.221Z,18.17
2023-03-29T15:16:48.382Z,18.37
2023-03-29T15:19:19.696Z,18.17
2023-03-29T15:21:50.422Z,18.25
2023-03-29T15:24:25.210Z,18.35
2023-03-29T15:27:03.115Z,18.35
2023-03-29T15:29:42.131Z,18.00
2023-03-29T15:32:11.124Z,17.63
2023-03-29T15:34:39.590Z,17.30
2023-03-29T15:37:08.207Z,16.94
2023-03-29T15:39:44.066Z,16.83
2023-03-29T15:42:12.871Z,16.94
2023-03-29T15:44:41.413Z,17.18
2023-03-29T15:47:10.995Z,16.92
2023-03-29T15:49:39.215Z,16.74
2023-03-29T15:52:07.538Z,16.65
2023-03-29T15:54:38.038Z,16.81
2023-03-29T15:57:09.515Z,16.89
2023-03-29T15:59:37.808Z,16.75
2023-03-29T16:02:07.978Z,16.61
2023-03-29T16:04:36.003Z,16.77
2023-03-29T16:07:08.330Z,16.60
2023-03-29T16:09:38.482Z,16.46
2023-03-29T16:12:06.963Z,16.41
2023-03-29T16:14:35.462Z,16.34
2023-03-29T16:17:04.009Z,16.27
2023-03-29T16:19:33.254Z,16.11
2023-03-29T16:22:07.617Z,16.07
2023-03-29T16:24:41.665Z,16.18
2023-03-29T16:27:09.966Z,16.57
2023-03-29T16:29:39.355Z,16.76
2023-03-29T16:32:07.690Z,16.69
2023-03-29T16:34:39.177Z,16.41
2023-03-29T16:37:07.721Z,16.35
2023-03-29T16:39:37.945Z,16.48
2023-03-29T16:42:06.411Z,16.54
2023-03-29T16:44:34.511Z,16.70
2023-03-29T16:47:02.927Z,16.92
2023-03-29T16:49:30.985Z,17.01
2023-03-29T16:52:00.135Z,17.05
2023-03-29T16:54:29.780Z,17.05
2023-03-29T16:56:59.435Z,16.92
2023-03-29T16:59:27.843Z,16.72
2023-03-29T17:01:56.042Z,16.50
2023-03-29T17:04:24.332Z,16.19
2023-03-29T17:06:53.697Z,15.93
2023-03-29T17:09:21.961Z,15.65
2023-03-29T17:11:50.345Z,15.54
2023-03-29T17:14:19.953Z,15.50
2023-03-29T17:16:48.282Z,15.36
2023-03-29T17:19:16.420Z,15.33
2023-03-29T17:21:45.015Z,15.45
2023-03-29T17:24:13.082Z,15.51
2023-03-29T17:26:43.240Z,15.52
2023-03-29T17:29:12.654Z,15.46
2023-03-29T17:31:47.797Z,15.39
2023-03-29T17:34:16.637Z,15.31
2023-03-29T17:36:45.834Z,15.19
2023-03-29T17:39:15.423Z,15.07
2023-03-29T17:41:46.121Z,14.97
2023-03-29T17:44:14.786Z,14.92
2023-03-29T17:46:44.460Z,14.84
2023-03-29T17:49:13.207Z,14.79
2023-03-29T17:51:41.441Z,14.73
2023-03-29T17:54:09.699Z,14.63
2023-03-29T17:56:37.918Z,14.50
2023-03-29T17:59:06.204Z,14.44
2023-03-29T18:01:36.400Z,14.43
2023-03-29T18:04:08.316Z,14.39
2023-03-29T18:06:36.580Z,14.26
2023-03-29T18:09:05.740Z,14.17
2023-03-29T18:11:33.908Z,14.20
2023-03-29T18:14:02.233Z,14.21
2023-03-29T18:16:30.707Z,14.17
2023-03-29T18:18:58.861Z,14.05
2023-03-29T18:21:28.707Z,13.99
2023-03-29T18:23:57.175Z,13.91
2023-03-29T18:26:25.889Z,13.81
2023-03-29T18:28:54.523Z,13.71
2023-03-29T18:31:22.730Z,13.62
2023-03-29T18:33:51.175Z,13.50
2023-03-29T18:36:19.421Z,13.41
2023-03-29T18:38:49.226Z,13.35
2023-03-29T18:41:17.391Z,13.27
2023-03-29T18:43:46.981Z,13.20
2023-03-29T18:46:15.212Z,13.12
2023-03-29T18:48:43.606Z,13.04
2023-03-29T18:51:13.519Z,12.98
2023-03-29T18:53:44.395Z,12.92
2023-03-29T18:56:14.201Z,12.86
2023-03-29T18:58:42.271Z,12.82
2023-03-29T19:01:11.065Z,12.76
2023-03-29T19:03:39.678Z,12.73
2023-03-29T19:06:09.176Z,12.68
2023-03-29T19:08:39.798Z,12.63
2023-03-29T19:11:09.914Z,12.56
2023-03-29T19:13:39.231Z,12.51
2023-03-29T19:16:08.150Z,12.48
2023-03-29T19:18:36.813Z,12.41
2023-03-29T19:21:05.233Z,12.36
2023-03-29T19:23:33.504Z,12.32
2023-03-29T19:26:04.075Z,12.28
2023-03-29T19:28:32.833Z,12.25
2023-03-29T19:31:03.286Z,12.19
2023-03-29T19:33:31.686Z,12.15
2023-03-29T19:35:59.946Z,12.12
2023-03-29T19:38:28.187Z,12.12
2023-03-29T19:40:56.744Z,12.13
2023-03-29T19:43:25.264Z,12.11
2023-03-29T19:45:53.389Z,12.09
2023-03-29T19:48:24.358Z,12.06
2023-03-29T19:50:53.116Z,12.05
2023-03-29T19:53:21.341Z,12.01
2023-03-29T19:55:50.133Z,11.98
2023-03-29T19:58:18.382Z,11.93
2023-03-29T20:00:47.082Z,11.89
2023-03-29T20:03:15.907Z,11.84
2023-03-29T20:05:45.578Z,11.79
2023-03-29T20:08:14.117Z,11.77
2023-03-29T20:10:42.592Z,11.72
2023-03-29T20:13:10.891Z,11.69
2023-03-29T20:15:41.513Z,11.66
2023-03-29T20:18:09.599Z,11.61
2023-03-29T20:20:37.750Z,11.56
2023-03-29T20:23:07.292Z,11.53
2023-03-29T20:25:36.361Z,11.50
2023-03-29T20:28:06.705Z,11.46
2023-03-29T20:30:35.211Z,11.44
2023-03-29T20:33:04.801Z,11.40
2023-03-29T20:35:33.308Z,11.35
2023-03-29T20:38:01.460Z,11.27
2023-03-29T20:40:31.768Z,11.21
2023-03-29T20:43:02.946Z,11.16
2023-03-29T20:45:35.117Z,11.12
2023-03-29T20:48:11.948Z,11.11
2023-03-29T20:50:40.377Z,11.08
2023-03-29T20:53:09.595Z,11.08
2023-03-29T20:55:39.335Z,11.08
2023-03-29T20:58:08.005Z,11.07
2023-03-29T21:00:40.541Z,11.03
2023-03-29T21:03:09.681Z,10.98
2023-03-29T21:05:39.524Z,10.95
2023-03-29T21:08:23.918Z,10.91
2023-03-29T21:10:53.374Z,10.85
2023-03-29T21:13:21.696Z,10.79
2023-03-29T21:15:52.386Z,10.74
2023-03-29T21:18:21.509Z,10.71
2023-03-29T21:20:49.754Z,10.67
2023-03-29T21:23:18.242Z,10.68
2023-03-29T21:25:46.762Z,10.68
2023-03-29T21:28:31.838Z,10.70
2023-03-29T21:31:00.007Z,10.73
2023-03-29T21:33:28.165Z,10.75
2023-03-29T21:35:56.282Z,10.74
2023-03-29T21:38:24.333Z,10.77
2023-03-29T21:40:52.448Z,10.78
2023-03-29T21:43:22.224Z,10.81
2023-03-29T21:45:50.438Z,10.83
2023-03-29T21:48:19.110Z,10.84
2023-03-29T21:50:50.049Z,10.83
2023-03-29T21:53:18.517Z,10.84
2023-03-29T21:55:49.986Z,10.83
2023-03-29T21:58:18.985Z,10.83
2023-03-29T22:00:49.438Z,10.80
2023-03-29T22:03:18.383Z,10.77
2023-03-29T22:05:57.594Z,10.77
2023-03-29T22:08:26.508Z,10.77
2023-03-29T22:10:58.289Z,10.74
2023-03-29T22:13:29.022Z,10.73
2023-03-29T22:16:00.431Z,10.69
2023-03-29T22:18:42.296Z,10.64
2023-03-29T22:21:13.306Z,10.60
2023-03-29T22:23:42.333Z,10.60
2023-03-29T22:26:12.621Z,10.60
2023-03-29T22:28:41.936Z,10.63
2023-03-29T22:31:13.686Z,10.66
2023-03-29T22:33:42.675Z,10.69
2023-03-29T22:36:16.084Z,10.72
2023-03-29T22:38:44.606Z,10.77
2023-03-29T22:41:12.925Z,10.80
2023-03-29T22:43:41.616Z,10.82
2023-03-29T22:46:13.333Z,10.84
2023-03-29T22:48:41.850Z,10.86
2023-03-29T22:51:10.220Z,10.87
2023-03-29T22:53:38.821Z,10.89
2023-03-29T22:56:09.466Z,10.89
2023-03-29T22:58:38.144Z,10.90
2023-03-29T23:01:07.430Z,10.92
2023-03-29T23:03:38.028Z,10.95
2023-03-29T23:06:08.083Z,10.95
2023-03-29T23:08:36.478Z,10.89
2023-03-29T23:11:05.805Z,10.81
2023-03-29T23:13:35.848Z,10.76
2023-03-29T23:16:04.961Z,10.73
2023-03-29T23:18:34.925Z,10.72
2023-03-29T23:21:06.791Z,10.71
2023-03-29T23:23:35.301Z,10.70
2023-03-29T23:26:04.050Z,10.68
2023-03-29T23:28:34.523Z,10.68
2023-03-29T23:31:05.144Z,10.67
2023-03-29T23:33:35.782Z,10.64
2023-03-29T23:36:07.688Z,10.63
2023-03-29T23:38:38.874Z,10.59
2023-03-29T23:41:10.921Z,10.53
2023-03-29T23:43:41.623Z,10.48
2023-03-29T23:46:13.236Z,10.48
2023-03-29T23:48:41.670Z,10.47
2023-03-29T23:51:12.000Z,10.44
2023-03-29T23:53:40.293Z,10.40
2023-03-29T23:56:09.368Z,10.37
2023-03-29T23:58:39.145Z,10.34
